Página principal
METAR-TAF:

METAR-TAF

Aeroportos :

Egilsstadir, Islândia

latitude: 65-17N, longitude: 014-24W, altura: 23 m

Observação actual do tempo

O boletim foi feito há 13 minutos, às 11:00 UTC
Vento 10 kt de norte
Temperatura 10°C
Humidade 93%
Pressão 984 hPa
Visibilidade 10 km ou mais
Poucas nuvensa uma altura de 500 ft
Nuvens fragmentadasa uma altura de 1900 ft
Encobertoa uma altura de 2500 ft

METAR: BIEG 191100Z 36010KT 9999 FEW005 BKN019 OVC025 10/09 Q0984 RESHRA

Hora: 11:13 (11:13 UTC)

Previsão

O boletim foi feito há 3 horas e 34 minutos, às 07:39 UTC
Previsão válida de 19 às 09 UTC a 20 às 09 UTC
Vento 8 kt de nor-nordeste
Visibilidade 10 km ou mais
Nuvens fragmentadasa uma altura de 3000 ft
aguaceiros fracos de chuva
Probabilidade 40% :
Temporariamente
de 19 às 09 UTC a 20 às 05 UTC
Nuvens fragmentadasa uma altura de 1400 ft
chuva, chuvisco

TAF: BIEG 190739Z 1909/2009 02008KT 9999 -SHRA BKN030 TX11/1912Z TN09/2006Z PROB40 TEMPO 1909/2005 RADZ BKN014

Observações e previsões do tempo de mais de 4000 aeroportos (mensagens METAR e TAF).

As estações disponíveis são os pontos amarelos e vermelhos sobre o mapa.

Mova o rato sobre o mapa para ver o nome da estação.

Depois clique no ponto para visualizar as observações e previsões meteorológicas.

Para alterar o mapa : clique nos botões verdes com uma cruz preta para aumentar o zoom; no botão verde com uma pitada de zoom; ou nas setas verdes para mapas adjacentes.


METAR-TAF: